Time;durP1;ratioP1;P1;durP2;ratioP2;P2;SDS_P1;SDS_P2;PMS_P1;PMS_P2;Temp;Humidity;BMP_temperature;BMP_pressure;BME280_temperature;BME280_humidity;BME280_pressure;Samples;Min_cycle;Max_cycle;Signal;HPM_P1;HPM_P2
2022/01/03 00:00:21;;;;;;;11.50;2.33;;;8.90;99.90;;;;;;5075495;28;20078;-84
2022/01/03 00:02:47;;;;;;;6.40;2.00;;;8.90;99.90;;;;;;5110218;28;20092;-84
2022/01/03 00:05:13;;;;;;;9.23;2.40;;;9.00;99.90;;;;;;5095190;28;20395;-85
2022/01/03 00:07:40;;;;;;;14.48;2.42;;;9.00;99.90;;;;;;5078398;28;20126;-85
2022/01/03 00:10:08;;;;;;;16.20;2.15;;;9.00;99.90;;;;;;5073168;28;20065;-85
2022/01/03 00:12:35;;;;;;;10.35;2.17;;;9.10;99.90;;;;;;5091806;28;20036;-85
2022/01/03 00:15:03;;;;;;;9.98;2.20;;;9.20;99.90;;;;;;5101511;28;20088;-84
2022/01/03 00:17:28;;;;;;;11.23;1.92;;;9.10;99.90;;;;;;5074767;28;20069;-85
2022/01/03 00:19:54;;;;;;;11.20;2.40;;;9.10;99.90;;;;;;5089951;28;20066;-85
2022/01/03 00:22:24;;;;;;;9.38;2.20;;;9.20;99.90;;;;;;5073623;28;20043;-84
2022/01/03 00:25:03;;;;;;;18.38;3.15;;;9.20;99.90;;;;;;5089802;28;20039;-85
2022/01/03 00:27:39;;;;;;;14.07;2.03;;;9.20;99.90;;;;;;5090725;28;20081;-84
2022/01/03 00:30:06;;;;;;;14.43;3.22;;;9.20;99.90;;;;;;5079298;28;20469;-84
2022/01/03 00:32:36;;;;;;;13.85;2.22;;;9.20;99.90;;;;;;5077602;28;20089;-84
2022/01/03 00:35:04;;;;;;;17.33;2.55;;;9.20;99.90;;;;;;5111916;27;20051;-84
2022/01/03 00:37:31;;;;;;;15.88;2.17;;;9.30;99.90;;;;;;5110509;27;20040;-84
2022/01/03 00:39:58;;;;;;;16.05;2.75;;;9.30;99.90;;;;;;5094123;28;20510;-85
2022/01/03 00:42:24;;;;;;;15.45;2.25;;;9.30;99.90;;;;;;5088758;27;20047;-85
2022/01/03 00:44:52;;;;;;;16.77;2.60;;;9.30;99.90;;;;;;5093399;27;20126;-85
2022/01/03 00:47:18;;;;;;;23.33;4.03;;;9.30;99.90;;;;;;5108690;27;20118;-84
2022/01/03 00:49:44;;;;;;;16.27;2.90;;;9.30;99.90;;;;;;5103957;27;20150;-85
2022/01/03 00:52:11;;;;;;;20.00;3.00;;;9.30;99.90;;;;;;5075980;28;20516;-85
2022/01/03 00:54:36;;;;;;;19.63;4.57;;;9.40;99.90;;;;;;5076621;28;20609;-85
2022/01/03 00:57:05;;;;;;;21.10;2.88;;;9.40;99.90;;;;;;5088350;27;20130;-85
2022/01/03 00:59:36;;;;;;;20.35;3.25;;;9.40;99.90;;;;;;5101838;27;20054;-85
2022/01/03 01:02:02;;;;;;;19.90;2.88;;;9.40;99.90;;;;;;5076182;28;20599;-85
2022/01/03 01:04:28;;;;;;;19.00;3.03;;;9.40;99.90;;;;;;5094382;28;20040;-84
2022/01/03 01:06:56;;;;;;;21.40;2.78;;;9.40;99.90;;;;;;5076322;28;20096;-85
2022/01/03 01:09:23;;;;;;;16.90;3.45;;;9.40;99.90;;;;;;5093251;28;20560;-84
2022/01/03 01:11:52;;;;;;;16.73;3.20;;;9.40;99.90;;;;;;5083297;28;20068;-84
2022/01/03 01:14:18;;;;;;;19.40;3.38;;;9.40;99.90;;;;;;5074994;27;20501;-84
2022/01/03 01:16:44;;;;;;;17.58;3.33;;;9.40;99.90;;;;;;5094511;28;20114;-85
2022/01/03 01:19:11;;;;;;;22.15;3.80;;;9.40;99.90;;;;;;5077326;28;20035;-84
2022/01/03 01:21:37;;;;;;;22.13;3.38;;;9.40;99.90;;;;;;5110077;28;20065;-85
2022/01/03 01:24:03;;;;;;;23.10;4.00;;;9.40;99.90;;;;;;5076412;28;20071;-84
2022/01/03 01:29:14;;;;;;;19.67;3.17;;;9.40;99.90;;;;;;5092456;28;20649;-84
2022/01/03 01:31:51;;;;;;;19.65;4.07;;;9.40;99.90;;;;;;5091998;28;20035;-85
2022/01/03 01:34:25;;;;;;;20.33;3.30;;;9.40;99.90;;;;;;5076500;28;20484;-85
2022/01/03 01:36:55;;;;;;;25.05;4.35;;;9.40;99.90;;;;;;5075945;28;20047;-84
2022/01/03 01:39:23;;;;;;;24.77;4.13;;;9.40;99.90;;;;;;5080657;27;20527;-84
2022/01/03 01:41:55;;;;;;;23.88;3.13;;;9.40;99.90;;;;;;5093646;27;20167;-85
2022/01/03 01:44:23;;;;;;;20.60;3.13;;;9.40;99.90;;;;;;5090933;28;20046;-84
2022/01/03 01:46:53;;;;;;;24.55;3.33;;;9.40;99.90;;;;;;5097413;28;20069;-85
2022/01/03 01:49:21;;;;;;;29.63;4.50;;;9.40;99.90;;;;;;5110413;27;20035;-84
2022/01/03 01:51:55;;;;;;;19.13;4.13;;;9.40;99.90;;;;;;5085702;27;20122;-84
2022/01/03 01:54:36;;;;;;;19.65;3.30;;;9.40;99.90;;;;;;5105609;27;20520;-84
2022/01/03 01:57:08;;;;;;;21.08;3.00;;;9.40;99.90;;;;;;5077929;28;20496;-85
2022/01/03 01:59:41;;;;;;;29.08;4.45;;;9.40;99.90;;;;;;5091974;28;20517;-85
2022/01/03 02:02:09;;;;;;;21.38;4.20;;;9.40;99.90;;;;;;5076072;28;20054;-85
2022/01/03 02:04:47;;;;;;;21.60;4.65;;;9.40;99.90;;;;;;5075887;28;20784;-84
2022/01/03 02:07:25;;;;;;;20.30;3.30;;;9.40;99.90;;;;;;5074851;28;20035;-85
2022/01/03 02:10:12;;;;;;;24.95;3.63;;;9.40;99.90;;;;;;5091964;28;20055;-84
2022/01/03 02:12:43;;;;;;;23.15;3.85;;;9.40;99.90;;;;;;5097660;28;20039;-84
2022/01/03 02:15:13;;;;;;;22.00;3.40;;;9.40;99.90;;;;;;5099888;28;21716;-85
2022/01/03 02:17:40;;;;;;;22.83;3.53;;;9.40;99.90;;;;;;5105672;27;20035;-84
2022/01/03 02:20:12;;;;;;;15.73;3.80;;;9.40;99.90;;;;;;5090108;28;20036;-84
2022/01/03 02:22:40;;;;;;;20.75;3.30;;;9.40;99.90;;;;;;5088030;28;20039;-85
2022/01/03 02:25:09;;;;;;;19.30;3.13;;;9.40;99.90;;;;;;5085167;27;20046;-85
2022/01/03 02:27:36;;;;;;;20.63;3.90;;;9.40;99.90;;;;;;5092618;28;20388;-85
2022/01/03 02:30:07;;;;;;;24.33;3.30;;;9.40;99.90;;;;;;5100752;28;20632;-84
2022/01/03 02:32:32;;;;;;;18.17;3.40;;;9.40;99.90;;;;;;5104921;27;20039;-84
2022/01/03 02:34:58;;;;;;;19.85;3.38;;;9.40;99.90;;;;;;5091754;27;20038;-84
2022/01/03 02:37:24;;;;;;;17.25;3.78;;;9.40;99.90;;;;;;5093837;28;20442;-84
2022/01/03 02:39:53;;;;;;;22.98;3.47;;;9.40;99.90;;;;;;5058950;28;20070;-84
2022/01/03 02:42:23;;;;;;;20.13;3.28;;;9.40;99.90;;;;;;5094192;28;20088;-85
2022/01/03 02:45:04;;;;;;;16.85;3.35;;;9.40;99.90;;;;;;5093195;28;20043;-84
2022/01/03 02:47:30;;;;;;;24.67;3.53;;;9.30;99.90;;;;;;5094141;28;20035;-84
2022/01/03 02:49:55;;;;;;;19.92;2.83;;;9.30;99.90;;;;;;5100090;27;20531;-85
2022/01/03 02:52:21;;;;;;;22.98;3.88;;;9.30;99.90;;;;;;5090698;28;20035;-84
2022/01/03 02:54:48;;;;;;;37.90;4.75;;;9.30;99.90;;;;;;5077321;27;20103;-84
2022/01/03 02:57:14;;;;;;;26.45;4.38;;;9.30;99.90;;;;;;5111529;27;20067;-84
2022/01/03 02:59:40;;;;;;;21.95;3.33;;;9.30;99.90;;;;;;5101788;28;20070;-85
2022/01/03 03:02:06;;;;;;;14.23;3.17;;;9.30;99.90;;;;;;5105400;27;20046;-85
2022/01/03 03:04:32;;;;;;;27.02;4.55;;;9.20;99.90;;;;;;5075439;28;20065;-84
2022/01/03 03:06:57;;;;;;;32.78;4.88;;;9.20;99.90;;;;;;5079654;27;20035;-85
2022/01/03 03:09:23;;;;;;;19.98;3.20;;;9.20;99.90;;;;;;5110390;27;20035;-85
2022/01/03 03:11:49;;;;;;;20.20;3.20;;;9.30;99.90;;;;;;5091655;27;20067;-84
2022/01/03 03:14:14;;;;;;;24.92;4.93;;;9.20;99.90;;;;;;5102036;28;20044;-84
2022/01/03 03:16:41;;;;;;;25.75;4.45;;;9.20;99.90;;;;;;5102170;27;20123;-85
2022/01/03 03:19:09;;;;;;;19.88;3.70;;;9.20;99.90;;;;;;5098174;28;20555;-84
2022/01/03 03:21:35;;;;;;;23.15;4.60;;;9.20;99.90;;;;;;5074303;28;20580;-84
2022/01/03 03:24:00;;;;;;;26.48;3.70;;;9.20;99.90;;;;;;5088372;27;20039;-84
2022/01/03 03:26:26;;;;;;;27.33;5.40;;;9.20;99.90;;;;;;5078808;27;20043;-84
2022/01/03 03:28:52;;;;;;;23.85;3.60;;;9.10;99.90;;;;;;5090354;27;20035;-85
2022/01/03 03:31:18;;;;;;;23.08;3.63;;;9.10;99.90;;;;;;5076483;28;20444;-84
2022/01/03 03:33:43;;;;;;;23.27;3.33;;;9.00;99.90;;;;;;5079953;28;20043;-85
2022/01/03 03:36:09;;;;;;;22.15;3.90;;;9.00;99.90;;;;;;5079231;28;20043;-85
2022/01/03 03:38:35;;;;;;;23.58;4.05;;;9.00;99.90;;;;;;5090804;28;20051;-85
2022/01/03 03:41:01;;;;;;;30.08;4.55;;;9.00;99.90;;;;;;5074329;28;20096;-85
2022/01/03 03:43:30;;;;;;;26.60;4.07;;;9.00;99.90;;;;;;5114913;27;20446;-85
2022/01/03 03:45:56;;;;;;;31.55;4.25;;;9.00;99.90;;;;;;5101750;28;20036;-85
2022/01/03 03:48:22;;;;;;;23.63;3.10;;;9.00;99.90;;;;;;5075831;28;20036;-84
2022/01/03 03:50:47;;;;;;;26.85;3.40;;;9.00;99.90;;;;;;5091719;28;20039;-85
2022/01/03 03:53:13;;;;;;;23.10;4.38;;;9.00;99.90;;;;;;5083189;28;20039;-85
2022/01/03 03:55:39;;;;;;;20.60;3.83;;;9.10;99.90;;;;;;5096170;28;20160;-85
2022/01/03 03:58:05;;;;;;;26.38;3.42;;;9.10;99.90;;;;;;5071007;28;20044;-85
2022/01/03 04:00:32;;;;;;;25.60;3.50;;;9.10;99.90;;;;;;5089743;28;20024;-85
2022/01/03 04:02:58;;;;;;;29.77;4.22;;;9.10;99.90;;;;;;5099920;28;20039;-84
2022/01/03 04:05:24;;;;;;;27.17;3.65;;;9.10;99.90;;;;;;5093971;27;20039;-85
2022/01/03 04:07:49;;;;;;;30.42;3.60;;;9.10;99.90;;;;;;5078163;28;20046;-84
2022/01/03 04:10:16;;;;;;;20.02;3.38;;;9.10;99.90;;;;;;5087865;27;20519;-84
2022/01/03 04:12:43;;;;;;;24.77;4.03;;;9.10;99.90;;;;;;5096823;28;20050;-84
2022/01/03 04:15:09;;;;;;;21.02;3.67;;;9.20;99.90;;;;;;5077036;28;20031;-84
2022/01/03 04:17:35;;;;;;;20.30;3.60;;;9.20;99.90;;;;;;5112199;27;20043;-84
2022/01/03 04:20:04;;;;;;;24.05;3.60;;;9.20;99.90;;;;;;5075508;28;20499;-84
2022/01/03 04:22:30;;;;;;;28.45;3.75;;;9.20;99.90;;;;;;5113478;27;20043;-85
2022/01/03 04:24:56;;;;;;;30.70;5.75;;;9.20;99.90;;;;;;5095260;27;20063;-84
2022/01/03 04:27:21;;;;;;;24.85;3.83;;;9.20;99.90;;;;;;5122721;27;20085;-84
2022/01/03 04:29:47;;;;;;;24.52;4.22;;;9.20;99.90;;;;;;5094701;28;20104;-84
2022/01/03 04:32:13;;;;;;;31.63;5.93;;;9.30;99.90;;;;;;5080401;27;20066;-84
2022/01/03 04:34:38;;;;;;;27.67;3.65;;;9.40;99.90;;;;;;5108289;27;20065;-84
2022/01/03 04:37:04;;;;;;;26.90;4.40;;;9.30;99.90;;;;;;5080259;28;20040;-85
2022/01/03 04:39:30;;;;;;;21.00;4.00;;;9.40;99.90;;;;;;5105063;28;20481;-84
2022/01/03 04:41:55;;;;;;;23.98;4.68;;;9.30;99.90;;;;;;5095290;28;20036;-84
2022/01/03 04:44:21;;;;;;;25.50;4.43;;;9.30;99.90;;;;;;5098382;27;20070;-85
2022/01/03 04:46:47;;;;;;;32.97;4.78;;;9.40;99.90;;;;;;5099303;27;20035;-85
2022/01/03 04:49:12;;;;;;;23.70;4.07;;;9.40;99.90;;;;;;5082892;27;20116;-84
2022/01/03 04:51:39;;;;;;;30.05;4.25;;;9.40;99.90;;;;;;5080018;27;20044;-84
2022/01/03 04:54:05;;;;;;;30.70;4.93;;;9.40;99.90;;;;;;5087290;27;20042;-85
2022/01/03 04:56:33;;;;;;;25.23;4.20;;;9.40;99.90;;;;;;5079848;28;20039;-84
2022/01/03 04:58:59;;;;;;;21.88;3.85;;;9.40;99.90;;;;;;5080163;28;20116;-85
2022/01/03 05:01:24;;;;;;;24.55;4.75;;;9.40;99.90;;;;;;5103487;27;20135;-84
2022/01/03 05:03:51;;;;;;;30.15;5.40;;;9.40;99.90;;;;;;5105096;27;20527;-85
2022/01/03 05:06:17;;;;;;;33.78;4.93;;;9.40;99.90;;;;;;5096059;28;20032;-85
2022/01/03 05:08:43;;;;;;;25.27;4.75;;;9.40;99.90;;;;;;5070619;28;20085;-84
2022/01/03 05:11:09;;;;;;;27.70;5.45;;;9.40;99.90;;;;;;5073709;27;20481;-84
2022/01/03 05:13:35;;;;;;;35.65;6.85;;;9.40;99.90;;;;;;5093338;28;20676;-84
2022/01/03 05:16:01;;;;;;;25.27;4.85;;;9.40;99.90;;;;;;5079521;28;20081;-85
2022/01/03 05:18:27;;;;;;;33.38;4.47;;;9.40;99.90;;;;;;5093815;27;20106;-84
2022/01/03 05:20:53;;;;;;;30.45;5.20;;;9.40;99.90;;;;;;5097828;28;20031;-85
2022/01/03 05:23:19;;;;;;;27.75;4.53;;;9.50;99.90;;;;;;5079561;28;20541;-84
2022/01/03 05:25:44;;;;;;;32.65;4.55;;;9.50;99.90;;;;;;5081984;27;20034;-84
2022/01/03 05:28:10;;;;;;;29.92;5.10;;;9.40;99.90;;;;;;5113077;27;20038;-84
2022/01/03 05:30:36;;;;;;;25.98;4.63;;;9.40;99.90;;;;;;5104667;28;20038;-83
2022/01/03 05:33:02;;;;;;;34.22;5.00;;;9.50;99.90;;;;;;5079424;28;20032;-84
2022/01/03 05:35:28;;;;;;;25.00;4.28;;;9.50;99.90;;;;;;5078702;27;20503;-85
2022/01/03 05:37:54;;;;;;;26.90;4.15;;;9.40;99.90;;;;;;5076919;27;20055;-85
2022/01/03 05:40:19;;;;;;;29.50;4.63;;;9.40;99.90;;;;;;5113027;27;20032;-84
2022/01/03 05:42:46;;;;;;;32.42;5.45;;;9.40;99.90;;;;;;5093462;28;20085;-84
2022/01/03 05:45:12;;;;;;;30.25;4.70;;;9.50;99.90;;;;;;5092732;28;20050;-85
2022/01/03 05:47:40;;;;;;;31.38;4.40;;;9.50;99.90;;;;;;5080516;28;20043;-84
2022/01/03 05:50:06;;;;;;;33.13;4.60;;;9.50;99.90;;;;;;5096588;28;20455;-85
2022/01/03 05:52:33;;;;;;;26.85;5.00;;;9.40;99.90;;;;;;5092898;28;20043;-85
2022/01/03 05:54:59;;;;;;;27.10;4.05;;;9.40;99.90;;;;;;5095137;28;20035;-84
2022/01/03 05:57:25;;;;;;;34.50;4.88;;;9.40;99.90;;;;;;5095269;27;20500;-85
2022/01/03 05:59:50;;;;;;;31.88;5.32;;;9.40;99.90;;;;;;5081931;27;20110;-85
2022/01/03 06:02:17;;;;;;;28.13;4.18;;;9.40;99.90;;;;;;5096297;28;20147;-84
2022/01/03 06:07:09;;;;;;;28.25;4.13;;;9.40;99.90;;;;;;5087841;28;20522;-84
2022/01/03 06:09:36;;;;;;;26.67;4.05;;;9.30;99.90;;;;;;5101722;28;20042;-84
2022/01/03 06:12:03;;;;;;;30.77;5.22;;;9.30;99.90;;;;;;5092375;28;20504;-85
2022/01/03 06:14:29;;;;;;;22.92;4.20;;;9.30;99.90;;;;;;5082645;27;20046;-84
2022/01/03 06:16:55;;;;;;;24.48;4.47;;;9.30;99.90;;;;;;5099293;28;20715;-85
2022/01/03 06:19:21;;;;;;;34.47;5.10;;;9.30;99.90;;;;;;5097081;27;20036;-85
2022/01/03 06:21:47;;;;;;;24.00;3.80;;;9.30;99.90;;;;;;5088398;27;20043;-85
2022/01/03 06:24:15;;;;;;;21.88;4.18;;;9.40;99.90;;;;;;5092968;28;20042;-85
2022/01/03 06:26:43;;;;;;;33.58;5.45;;;9.40;99.90;;;;;;5088652;28;20035;-84
2022/01/03 06:29:09;;;;;;;29.10;4.63;;;9.30;99.90;;;;;;5091623;28;20374;-84
2022/01/03 06:31:35;;;;;;;36.20;5.15;;;9.40;99.90;;;;;;5108607;27;20209;-85
2022/01/03 06:34:01;;;;;;;37.35;5.68;;;9.30;99.90;;;;;;5076499;27;20061;-85
2022/01/03 06:36:27;;;;;;;31.90;5.47;;;9.30;99.90;;;;;;5075469;28;20027;-85
2022/01/03 06:38:56;;;;;;;29.15;5.05;;;9.30;99.90;;;;;;5106453;27;20032;-85
2022/01/03 06:41:22;;;;;;;32.55;4.72;;;9.30;99.90;;;;;;5074167;28;20031;-85
2022/01/03 06:43:48;;;;;;;21.95;3.92;;;9.30;99.90;;;;;;5073654;28;20036;-84
2022/01/03 06:46:14;;;;;;;26.45;4.20;;;9.30;99.90;;;;;;5092480;27;20075;-84
2022/01/03 06:48:40;;;;;;;29.15;6.03;;;9.30;99.90;;;;;;5089019;28;20070;-84
2022/01/03 06:51:05;;;;;;;29.85;4.95;;;9.30;99.90;;;;;;5086528;28;20055;-84
2022/01/03 06:53:31;;;;;;;27.85;4.43;;;9.30;99.90;;;;;;5073044;28;20740;-84
2022/01/03 06:55:57;;;;;;;33.60;5.22;;;9.30;99.90;;;;;;5091056;28;20456;-84
2022/01/03 06:58:22;;;;;;;30.25;4.05;;;9.30;99.90;;;;;;5090225;28;20038;-84
2022/01/03 07:00:48;;;;;;;33.35;5.13;;;9.30;99.90;;;;;;5090516;28;20072;-84
2022/01/03 07:03:13;;;;;;;28.92;5.75;;;9.30;99.90;;;;;;5090743;28;20126;-85
2022/01/03 07:06:01;;;;;;;42.67;6.45;;;9.30;99.90;;;;;;5095924;28;20042;-84
2022/01/03 07:08:26;;;;;;;30.77;4.07;;;9.30;99.90;;;;;;5083098;28;20092;-84
2022/01/03 07:10:52;;;;;;;32.00;4.88;;;9.30;99.90;;;;;;5098585;27;20073;-85
2022/01/03 07:13:18;;;;;;;44.30;5.25;;;9.30;99.90;;;;;;5096091;28;20039;-84
2022/01/03 07:21:13;;;;;;;32.30;6.72;;;9.30;99.90;;;;;;5120187;27;20019;-85
2022/01/03 07:23:40;;;;;;;35.83;6.45;;;9.30;99.90;;;;;;5133772;27;20343;-84
2022/01/03 07:26:06;;;;;;;29.92;4.30;;;9.20;99.90;;;;;;5132780;28;20047;-85
2022/01/03 07:28:32;;;;;;;27.75;5.65;;;9.30;99.90;;;;;;5113598;28;20092;-84
2022/01/03 07:30:57;;;;;;;33.88;4.85;;;9.30;99.90;;;;;;5108007;28;20101;-85
2022/01/03 07:33:23;;;;;;;25.40;4.25;;;9.30;99.90;;;;;;5073552;28;20473;-84
2022/01/03 07:35:48;;;;;;;35.65;4.50;;;9.20;99.90;;;;;;5089903;28;20038;-84
2022/01/03 07:38:14;;;;;;;30.58;4.60;;;9.20;99.90;;;;;;5088759;28;20051;-84
2022/01/03 07:40:40;;;;;;;31.95;5.20;;;9.20;99.90;;;;;;5073939;28;20131;-84
2022/01/03 07:43:06;;;;;;;26.45;3.70;;;9.30;99.90;;;;;;5071989;28;20504;-84
2022/01/03 07:45:32;;;;;;;27.23;4.07;;;9.20;99.90;;;;;;5092063;27;20039;-84
2022/01/03 07:47:58;;;;;;;30.45;4.80;;;9.30;99.90;;;;;;5072653;28;20093;-84
2022/01/03 07:50:24;;;;;;;29.67;5.75;;;9.30;99.90;;;;;;5070327;28;20035;-83
2022/01/03 07:52:49;;;;;;;26.88;4.57;;;9.30;99.90;;;;;;5086427;28;20096;-84
2022/01/03 07:55:15;;;;;;;32.47;5.85;;;9.30;99.90;;;;;;5072035;28;20118;-84
2022/01/03 07:57:42;;;;;;;29.30;4.38;;;9.40;99.90;;;;;;5101217;28;20089;-83
2022/01/03 08:00:11;;;;;;;30.95;4.95;;;9.40;99.90;;;;;;5089571;28;20362;-84
2022/01/03 08:02:38;;;;;;;28.58;4.40;;;9.40;99.90;;;;;;5092438;28;20397;-84
2022/01/03 08:05:05;;;;;;;39.42;4.90;;;9.40;99.90;;;;;;5089015;28;20048;-84
2022/01/03 08:07:31;;;;;;;26.17;4.78;;;9.40;99.90;;;;;;5106703;28;20071;-83
2022/01/03 08:09:57;;;;;;;28.85;4.20;;;9.50;99.90;;;;;;5072302;28;20431;-83
2022/01/03 08:12:22;;;;;;;27.90;4.43;;;9.40;99.90;;;;;;5072699;28;20043;-84
2022/01/03 08:14:48;;;;;;;29.40;4.68;;;9.50;99.90;;;;;;5088333;28;20059;-83
2022/01/03 08:17:13;;;;;;;34.20;5.28;;;9.50;99.90;;;;;;5070499;28;20554;-84
2022/01/03 08:19:39;;;;;;;28.83;4.18;;;9.50;99.90;;;;;;5099547;28;20032;-84
2022/01/03 08:22:05;;;;;;;30.00;5.43;;;9.50;99.90;;;;;;5081535;28;20404;-83
2022/01/03 08:24:30;;;;;;;34.40;5.72;;;9.50;99.90;;;;;;5070411;28;20170;-83
2022/01/03 08:26:56;;;;;;;34.00;4.80;;;9.50;99.90;;;;;;5068372;28;20074;-82
2022/01/03 08:29:22;;;;;;;35.53;6.43;;;9.60;99.90;;;;;;5086789;28;20028;-83
2022/01/03 08:31:48;;;;;;;28.02;4.60;;;9.50;99.90;;;;;;5087746;28;20092;-83
2022/01/03 08:34:14;;;;;;;26.52;4.22;;;9.50;99.90;;;;;;5066058;28;20112;-82
2022/01/03 08:36:39;;;;;;;23.60;4.70;;;9.60;99.90;;;;;;5086636;28;20249;-83
2022/01/03 08:39:06;;;;;;;25.58;4.82;;;9.60;99.90;;;;;;5086480;28;20388;-82
2022/01/03 08:41:32;;;;;;;25.38;4.82;;;9.60;99.90;;;;;;5080154;28;20051;-83
2022/01/03 08:43:58;;;;;;;21.05;4.55;;;9.60;99.90;;;;;;5069378;28;20038;-83
2022/01/03 08:46:24;;;;;;;31.83;4.40;;;9.60;99.90;;;;;;5072577;28;20039;-82
2022/01/03 08:48:53;;;;;;;30.25;6.18;;;9.60;99.90;;;;;;5083612;28;20031;-82
2022/01/03 08:51:19;;;;;;;28.38;4.22;;;9.60;99.90;;;;;;5084206;27;20542;-83
2022/01/03 08:53:45;;;;;;;24.67;4.30;;;9.60;99.90;;;;;;5066054;28;20044;-83
2022/01/03 08:56:11;;;;;;;26.80;4.53;;;9.70;99.90;;;;;;5084241;28;20036;-82
2022/01/03 08:58:37;;;;;;;29.20;4.40;;;9.70;99.90;;;;;;5086749;28;20039;-82
2022/01/03 09:01:02;;;;;;;24.80;5.30;;;9.70;99.90;;;;;;5087795;28;20431;-83
2022/01/03 09:03:28;;;;;;;32.42;4.43;;;9.70;99.90;;;;;;5087834;28;20363;-82
2022/01/03 09:05:54;;;;;;;30.25;4.45;;;9.70;99.90;;;;;;5105013;28;20041;-82
2022/01/03 09:08:22;;;;;;;33.88;4.45;;;9.70;99.90;;;;;;5085190;27;20386;-82
2022/01/03 09:10:49;;;;;;;24.13;4.25;;;9.80;99.90;;;;;;5088062;28;20032;-83
2022/01/03 09:13:15;;;;;;;25.52;4.32;;;9.80;99.90;;;;;;5091346;28;20096;-83
2022/01/03 09:15:44;;;;;;;29.58;4.40;;;9.70;99.90;;;;;;5083218;28;20035;-84
2022/01/03 09:18:14;;;;;;;27.95;5.07;;;9.80;99.90;;;;;;5085790;28;20341;-84
2022/01/03 09:20:40;;;;;;;27.75;3.80;;;9.80;99.90;;;;;;5079463;28;20084;-84
2022/01/03 09:23:12;;;;;;;28.42;4.97;;;9.80;99.90;;;;;;5082981;27;20484;-83
2022/01/03 09:30:52;;;;;;;21.52;4.63;;;9.80;99.90;;;;;;5088397;28;20481;-83
2022/01/03 09:33:18;;;;;;;33.13;3.92;;;9.80;99.90;;;;;;5082261;28;20048;-83
2022/01/03 09:35:44;;;;;;;23.02;3.92;;;9.80;99.90;;;;;;5079554;28;20036;-82
2022/01/03 09:38:11;;;;;;;20.08;4.78;;;9.80;99.90;;;;;;5084897;28;20044;-83
2022/01/03 09:40:40;;;;;;;25.33;4.10;;;9.80;99.90;;;;;;5071397;27;20481;-83
2022/01/03 09:43:11;;;;;;;26.85;4.28;;;9.90;99.90;;;;;;5085845;28;20074;-84
2022/01/03 09:45:37;;;;;;;30.38;4.50;;;9.80;99.90;;;;;;5073218;28;20556;-84
2022/01/03 09:48:04;;;;;;;27.88;5.05;;;9.90;99.90;;;;;;5074627;27;20071;-84
2022/01/03 09:50:34;;;;;;;27.52;5.18;;;9.80;99.90;;;;;;5071893;27;20039;-84
2022/01/03 09:53:02;;;;;;;29.17;4.35;;;9.90;99.90;;;;;;5085025;28;20520;-82
2022/01/03 09:55:31;;;;;;;27.50;4.90;;;9.90;99.90;;;;;;5083173;28;20075;-83
2022/01/03 09:57:57;;;;;;;30.23;4.75;;;9.90;99.90;;;;;;5090995;27;20080;-82
2022/01/03 10:00:23;;;;;;;27.73;4.43;;;9.90;99.90;;;;;;5071451;28;20423;-83
2022/01/03 10:02:50;;;;;;;27.92;4.43;;;9.90;99.90;;;;;;5086935;28;20051;-82
2022/01/03 10:05:16;;;;;;;21.67;4.30;;;10.00;99.90;;;;;;5073297;27;20118;-83
2022/01/03 10:07:42;;;;;;;26.60;4.18;;;9.90;99.90;;;;;;5104579;27;20400;-83
2022/01/03 10:10:09;;;;;;;29.23;4.43;;;9.90;99.90;;;;;;5067852;28;20038;-83
2022/01/03 10:12:36;;;;;;;26.23;4.47;;;10.00;99.90;;;;;;5088562;28;20404;-83
2022/01/03 10:15:04;;;;;;;24.83;3.88;;;10.00;99.90;;;;;;5085426;28;20042;-83
2022/01/03 10:17:37;;;;;;;31.25;3.78;;;10.00;99.90;;;;;;5108711;27;20080;-83
2022/01/03 10:20:05;;;;;;;34.47;4.90;;;10.00;99.90;;;;;;5075131;27;20505;-83
2022/01/03 10:22:34;;;;;;;31.15;3.85;;;10.00;99.90;;;;;;5074338;27;20745;-84
2022/01/03 10:25:09;;;;;;;27.58;5.93;;;10.00;99.90;;;;;;5071117;28;20489;-83
2022/01/03 10:27:56;;;;;;;31.27;5.65;;;10.00;99.90;;;;;;5078986;28;20130;-84
2022/01/03 10:30:43;;;;;;;26.88;3.92;;;10.00;99.90;;;;;;5083429;28;20063;-84
2022/01/03 10:33:14;;;;;;;28.75;3.70;;;10.00;99.90;;;;;;5064986;27;20512;-83
2022/01/03 10:35:46;;;;;;;22.55;4.07;;;10.00;99.90;;;;;;5090045;27;20548;-83
2022/01/03 10:38:32;;;;;;;25.33;3.83;;;10.00;99.90;;;;;;5072273;28;20055;-83
2022/01/03 10:41:15;;;;;;;24.33;4.28;;;10.00;99.90;;;;;;5071919;28;20059;-83
2022/01/03 10:43:43;;;;;;;27.08;4.05;;;10.00;99.90;;;;;;5098265;28;20263;-83
2022/01/03 10:46:22;;;;;;;28.08;3.65;;;10.00;99.90;;;;;;5101662;27;20036;-83
2022/01/03 10:48:48;;;;;;;26.77;4.07;;;10.10;99.90;;;;;;5072762;28;20024;-83
2022/01/03 10:51:24;;;;;;;22.42;4.00;;;10.00;99.90;;;;;;5092838;27;20031;-84
2022/01/03 10:53:51;;;;;;;;;;;10.00;99.90;;;;;;5092188;27;20031;-83
2022/01/03 10:56:24;;;;;;;26.92;3.90;;;10.00;99.90;;;;;;5087344;28;19919;-83
2022/01/03 10:58:55;;;;;;;21.90;3.20;;;10.00;99.90;;;;;;5060764;28;20035;-83
2022/01/03 11:01:28;;;;;;;24.08;3.88;;;10.10;99.90;;;;;;5062202;28;20568;-84
2022/01/03 11:03:57;;;;;;;29.75;3.92;;;10.10;99.90;;;;;;5073439;27;20699;-83
2022/01/03 11:06:48;;;;;;;18.98;3.55;;;10.00;99.90;;;;;;5081478;28;20046;-84
2022/01/03 11:11:58;;;;;;;26.38;3.90;;;10.10;99.90;;;;;;5081292;28;20484;-84
2022/01/03 11:14:41;;;;;;;20.15;4.05;;;10.10;99.90;;;;;;5083224;28;20059;-84
2022/01/03 11:17:28;;;;;;;26.23;4.43;;;10.10;99.90;;;;;;5072301;28;20496;-84
2022/01/03 11:19:58;;;;;;;23.70;4.03;;;10.20;99.90;;;;;;5085714;28;20497;-83
2022/01/03 11:22:40;;;;;;;25.20;4.43;;;10.20;99.90;;;;;;5068740;27;20050;-84
2022/01/03 11:25:07;;;;;;;26.30;4.22;;;10.20;99.90;;;;;;5061536;28;20298;-82
2022/01/03 11:27:38;;;;;;;25.90;3.65;;;10.20;99.90;;;;;;5075840;28;20476;-83
2022/01/03 11:30:06;;;;;;;19.92;4.35;;;10.20;99.90;;;;;;5080410;28;20106;-83
2022/01/03 11:32:34;;;;;;;20.75;3.75;;;10.20;99.90;;;;;;5067416;28;20532;-83
2022/01/03 11:35:01;;;;;;;23.15;3.20;;;10.20;99.90;;;;;;5065098;28;20540;-83
2022/01/03 11:37:32;;;;;;;29.40;4.32;;;10.30;99.90;;;;;;5067455;28;20047;-83
2022/01/03 11:40:00;;;;;;;24.13;3.72;;;10.30;99.90;;;;;;5062816;28;20032;-83
2022/01/03 11:42:26;;;;;;;23.67;3.85;;;10.40;99.90;;;;;;5099433;28;20041;-83
2022/01/03 11:44:51;;;;;;;21.27;4.38;;;10.40;99.90;;;;;;5078133;28;20027;-83
2022/01/03 11:47:18;;;;;;;22.38;3.20;;;10.40;99.90;;;;;;5066992;28;20097;-84
2022/01/03 11:49:45;;;;;;;23.65;4.88;;;10.50;99.90;;;;;;5071217;28;20036;-84
2022/01/03 11:52:12;;;;;;;23.20;4.20;;;10.50;99.90;;;;;;5073056;28;20032;-84
2022/01/03 11:54:39;;;;;;;23.95;3.35;;;10.40;99.90;;;;;;5089652;28;20138;-84
2022/01/03 11:57:11;;;;;;;19.70;3.45;;;10.40;99.90;;;;;;5088631;28;20085;-84
2022/01/03 12:05:10;;;;;;;18.15;4.03;;;10.40;99.90;;;;;;5105554;28;20508;-84
2022/01/03 12:07:54;;;;;;;22.63;3.60;;;10.40;99.90;;;;;;5072596;28;20087;-84
2022/01/03 12:10:20;;;;;;;30.77;3.83;;;10.40;99.90;;;;;;5073284;28;20031;-84
2022/01/03 12:12:45;;;;;;;26.70;4.45;;;10.40;99.90;;;;;;5090612;28;20068;-84
2022/01/03 12:15:32;;;;;;;24.02;3.60;;;10.40;99.90;;;;;;5088076;28;20042;-84
2022/01/03 12:17:58;;;;;;;23.52;4.43;;;10.40;99.90;;;;;;5087764;28;20036;-84
2022/01/03 12:20:38;;;;;;;22.60;3.53;;;10.40;99.90;;;;;;5074228;28;21429;-85
2022/01/03 12:23:04;;;;;;;21.52;3.30;;;10.40;99.90;;;;;;5082259;28;20054;-85
2022/01/03 12:25:32;;;;;;;29.52;3.83;;;10.40;99.90;;;;;;5081432;27;20047;-85
2022/01/03 12:28:03;;;;;;;16.95;3.55;;;10.40;99.90;;;;;;5099290;27;20051;-84
2022/01/03 12:30:34;;;;;;;25.48;3.55;;;10.40;99.90;;;;;;5079390;27;20528;-84
2022/01/03 12:33:08;;;;;;;26.35;5.07;;;10.40;99.90;;;;;;5082448;28;20498;-83
2022/01/03 12:35:38;;;;;;;21.95;5.25;;;10.40;99.90;;;;;;5090300;28;20377;-84
2022/01/03 12:38:04;;;;;;;24.70;4.18;;;10.40;99.90;;;;;;5099400;27;20055;-83
2022/01/03 12:40:45;;;;;;;25.60;5.75;;;10.50;99.90;;;;;;5071261;28;20043;-84
2022/01/03 12:43:13;;;;;;;28.17;4.75;;;10.40;99.90;;;;;;5070682;28;20087;-84
2022/01/03 12:45:44;;;;;;;22.38;4.97;;;10.50;99.90;;;;;;5081307;28;20045;-84
2022/01/03 12:48:10;;;;;;;20.75;7.18;;;10.60;99.90;;;;;;5080856;27;20042;-84
2022/01/03 12:50:52;;;;;;;31.05;8.05;;;10.50;99.90;;;;;;5072764;28;20040;-84
2022/01/03 12:53:27;;;;;;;25.08;7.20;;;10.50;99.90;;;;;;5073005;27;20035;-84
2022/01/03 12:55:55;;;;;;;48.42;25.30;;;10.50;99.90;;;;;;5086619;28;20505;-84
2022/01/03 12:58:21;;;;;;;56.17;22.17;;;10.50;99.90;;;;;;5068179;28;20073;-84
2022/01/03 13:00:49;;;;;;;51.97;23.02;;;10.50;99.90;;;;;;5073222;27;20039;-83
2022/01/03 13:03:43;;;;;;;27.05;7.63;;;10.40;99.90;;;;;;5094964;27;20116;-83
2022/01/03 13:06:19;;;;;;;22.98;4.95;;;10.50;99.90;;;;;;5079716;28;20501;-83
2022/01/03 13:08:48;;;;;;;24.35;5.63;;;10.50;99.90;;;;;;5063310;27;20490;-83
2022/01/03 13:11:16;;;;;;;30.27;5.00;;;10.50;99.90;;;;;;5089181;28;20236;-83
2022/01/03 13:13:44;;;;;;;33.28;5.32;;;10.50;99.90;;;;;;5074819;28;20505;-83